Time;durP1;ratioP1;P1;durP2;ratioP2;P2;SDS_P1;SDS_P2;PMS_P1;PMS_P2;Temp;Humidity;BMP_temperature;BMP_pressure;BME280_temperature;BME280_humidity;BME280_pressure;Samples;Min_cycle;Max_cycle;Signal;HPM_P1;HPM_P2
2023/07/31 00:01:01;;;;;;;;;3.75;3.50;;;;;;;;5018843;28;45695;-77
2023/07/31 00:03:26;;;;;;;;;3.00;3.00;;;;;;;;5005331;28;46543;-76
2023/07/31 00:05:52;;;;;;;;;3.33;3.33;;;;;;;;5018554;28;45974;-77
2023/07/31 00:08:17;;;;;;;;;8.00;4.67;;;;;;;;5018336;28;45976;-76
2023/07/31 00:10:42;;;;;;;;;6.25;4.00;;;;;;;;5019051;28;45454;-77
2023/07/31 00:13:08;;;;;;;;;5.00;4.00;;;;;;;;5019403;28;45541;-76
2023/07/31 00:15:33;;;;;;;;;10.33;7.67;;;;;;;;5013725;28;47231;-76
2023/07/31 00:17:58;;;;;;;;;4.25;3.00;;;;;;;;5020315;28;45464;-78
2023/07/31 00:20:24;;;;;;;;;5.33;4.00;;;;;;;;5022709;28;45374;-76
2023/07/31 00:22:49;;;;;;;;;5.00;4.00;;;;;;;;5000252;28;47084;-77
2023/07/31 00:25:15;;;;;;;;;9.00;6.67;;;;;;;;5029438;28;46025;-78
2023/07/31 00:27:44;;;;;;;;;3.00;3.00;;;;;;;;5023913;28;45415;-76
2023/07/31 00:30:09;;;;;;;;;9.67;6.67;;;;;;;;5013811;28;45846;-77
2023/07/31 00:32:35;;;;;;;;;5.67;4.00;;;;;;;;5031519;28;46585;-78
2023/07/31 00:35:00;;;;;;;;;5.25;4.50;;;;;;;;5023366;28;45471;-77
2023/07/31 00:37:25;;;;;;;;;4.50;4.00;;;;;;;;5019042;28;45630;-77
2023/07/31 00:39:51;;;;;;;;;5.00;4.00;;;;;;;;4990068;28;45811;-76
2023/07/31 00:42:16;;;;;;;;;4.25;3.25;;;;;;;;5024490;28;45795;-76
2023/07/31 00:44:41;;;;;;;;;2.25;2.25;;;;;;;;5023022;28;45421;-76
2023/07/31 00:47:06;;;;;;;;;4.25;3.75;;;;;;;;5027392;28;45508;-76
2023/07/31 00:49:32;;;;;;;;;4.25;2.25;;;;;;;;5022821;28;45813;-77
2023/07/31 00:51:57;;;;;;;;;1.75;1.75;;;;;;;;5023197;28;45067;-77
2023/07/31 00:54:25;;;;;;;;;6.75;5.00;;;;;;;;5010880;28;45772;-75
2023/07/31 00:56:50;;;;;;;;;2.25;2.25;;;;;;;;5018181;28;45503;-78
2023/07/31 00:59:16;;;;;;;;;2.25;0.50;;;;;;;;5001279;28;45351;-77
2023/07/31 01:01:41;;;;;;;;;3.75;2.00;;;;;;;;5016932;28;46196;-76
2023/07/31 01:04:07;;;;;;;;;2.75;2.75;;;;;;;;5004669;28;47038;-78
2023/07/31 01:06:32;;;;;;;;;5.00;3.33;;;;;;;;5003895;28;45478;-77
2023/07/31 01:09:02;;;;;;;;;2.50;2.25;;;;;;;;5017020;28;45480;-77
2023/07/31 01:11:28;;;;;;;;;3.00;3.00;;;;;;;;5018493;28;45905;-77
2023/07/31 01:13:54;;;;;;;;;5.00;4.00;;;;;;;;5022297;28;46528;-75
2023/07/31 01:16:20;;;;;;;;;3.75;2.00;;;;;;;;5016350;28;45799;-76
2023/07/31 01:18:45;;;;;;;;;4.50;4.50;;;;;;;;5023115;28;45444;-76
2023/07/31 01:21:30;;;;;;;;;3.50;2.25;;;;;;;;5022287;28;45417;-76
2023/07/31 01:24:13;;;;;;;;;3.00;1.75;;;;;;;;5011708;28;45475;-76
2023/07/31 01:26:40;;;;;;;;;3.00;3.00;;;;;;;;4998525;28;45982;-75
2023/07/31 01:29:20;;;;;;;;;2.00;2.00;;;;;;;;5015374;28;45472;-76
2023/07/31 01:31:48;;;;;;;;;2.00;2.00;;;;;;;;5015296;28;45765;-77
2023/07/31 01:34:14;;;;;;;;;2.00;2.00;;;;;;;;5024067;28;45760;-76
2023/07/31 01:36:39;;;;;;;;;5.75;4.50;;;;;;;;5021442;28;45334;-76
2023/07/31 01:39:04;;;;;;;;;3.00;2.00;;;;;;;;5009159;28;45932;-76
2023/07/31 01:41:30;;;;;;;;;3.00;3.00;;;;;;;;5022540;28;45631;-77
2023/07/31 01:43:55;;;;;;;;;2.00;2.00;;;;;;;;5022467;28;45685;-76
2023/07/31 01:46:20;;;;;;;;;3.75;2.00;;;;;;;;5019902;28;45718;-77
2023/07/31 01:48:46;;;;;;;;;3.75;2.00;;;;;;;;5008620;28;45429;-76
2023/07/31 01:51:11;;;;;;;;;5.50;2.00;;;;;;;;5023303;28;45380;-77
2023/07/31 01:53:36;;;;;;;;;2.25;1.00;;;;;;;;5024425;28;45400;-76
2023/07/31 01:56:02;;;;;;;;;5.50;2.75;;;;;;;;5028846;28;45423;-77
2023/07/31 01:58:27;;;;;;;;;4.25;3.00;;;;;;;;5038012;28;45357;-77
2023/07/31 02:00:52;;;;;;;;;1.50;1.50;;;;;;;;5037068;28;45595;-77
2023/07/31 02:03:17;;;;;;;;;2.00;2.00;;;;;;;;5022617;28;46352;-77
2023/07/31 02:05:47;;;;;;;;;1.50;1.50;;;;;;;;4997664;28;45437;-76
2023/07/31 02:08:12;;;;;;;;;2.25;1.25;;;;;;;;5007668;28;45357;-76
2023/07/31 02:10:38;;;;;;;;;3.50;2.25;;;;;;;;4993395;28;45559;-76
2023/07/31 02:13:03;;;;;;;;;2.75;1.25;;;;;;;;5011527;28;45798;-78
2023/07/31 02:15:40;;;;;;;;;2.00;2.00;;;;;;;;5030273;28;45454;-75
2023/07/31 02:18:06;;;;;;;;;3.00;3.00;;;;;;;;5030631;28;45421;-76
2023/07/31 02:20:33;;;;;;;;;4.25;2.25;;;;;;;;5004545;28;45875;-75
2023/07/31 02:22:58;;;;;;;;;3.25;2.00;;;;;;;;5009715;28;46368;-76
2023/07/31 02:25:25;;;;;;;;;4.00;1.50;;;;;;;;5035999;28;45481;-75
2023/07/31 02:27:50;;;;;;;;;4.50;3.00;;;;;;;;5006162;28;45489;-75
2023/07/31 02:30:16;;;;;;;;;2.00;2.00;;;;;;;;5023208;28;45464;-76
2023/07/31 02:32:44;;;;;;;;;2.00;2.00;;;;;;;;5037369;28;46167;-75
2023/07/31 02:35:09;;;;;;;;;1.25;1.00;;;;;;;;5019413;28;45240;-76
2023/07/31 02:37:35;;;;;;;;;2.00;2.00;;;;;;;;5031992;28;45457;-76
2023/07/31 02:40:00;;;;;;;;;1.50;1.50;;;;;;;;5025111;28;45477;-76
2023/07/31 02:42:25;;;;;;;;;1.25;1.00;;;;;;;;5002584;28;45384;-75
2023/07/31 02:44:55;;;;;;;;;2.00;0.00;;;;;;;;5009519;28;44848;-76
2023/07/31 02:47:20;;;;;;;;;1.00;1.00;;;;;;;;5025372;28;44795;-76
2023/07/31 02:49:46;;;;;;;;;1.25;1.25;;;;;;;;5019257;28;45434;-75
2023/07/31 02:52:11;;;;;;;;;2.75;1.00;;;;;;;;5026874;28;45528;-75
2023/07/31 02:54:36;;;;;;;;;2.00;1.25;;;;;;;;5028207;28;45438;-75
2023/07/31 02:57:02;;;;;;;;;2.00;2.00;;;;;;;;5021662;28;45949;-76
2023/07/31 02:59:28;;;;;;;;;1.00;0.00;;;;;;;;5020160;28;45294;-76
2023/07/31 03:01:53;;;;;;;;;1.00;1.00;;;;;;;;5020111;28;45763;-76
2023/07/31 03:04:18;;;;;;;;;3.50;2.50;;;;;;;;5005853;28;45724;-74
2023/07/31 03:06:43;;;;;;;;;1.00;1.00;;;;;;;;5021341;28;45458;-75
2023/07/31 03:09:09;;;;;;;;;2.75;1.00;;;;;;;;5021232;28;45380;-75
2023/07/31 03:11:34;;;;;;;;;1.00;1.00;;;;;;;;5030811;28;46956;-76
2023/07/31 03:13:59;;;;;;;;;1.00;0.00;;;;;;;;5020220;28;45440;-76
2023/07/31 03:16:24;;;;;;;;;4.25;2.25;;;;;;;;5022629;28;45335;-75
2023/07/31 03:18:50;;;;;;;;;2.00;0.25;;;;;;;;5022210;28;45391;-76
2023/07/31 03:21:15;;;;;;;;;2.50;2.50;;;;;;;;5021653;28;45460;-77
2023/07/31 03:23:40;;;;;;;;;0.50;0.50;;;;;;;;5022438;28;45477;-78
2023/07/31 03:26:07;;;;;;;;;5.00;2.00;;;;;;;;5022907;28;45366;-75
2023/07/31 03:28:32;;;;;;;;;1.25;1.25;;;;;;;;5021805;28;45895;-75
2023/07/31 03:30:57;;;;;;;;;1.00;1.00;;;;;;;;5022227;28;46647;-76
2023/07/31 03:33:23;;;;;;;;;7.33;2.00;;;;;;;;5021492;28;45925;-77
2023/07/31 03:35:48;;;;;;;;;2.75;2.00;;;;;;;;5003136;28;45485;-75
2023/07/31 03:38:13;;;;;;;;;1.00;1.00;;;;;;;;5010251;28;46064;-76
2023/07/31 03:40:39;;;;;;;;;3.00;2.00;;;;;;;;5021580;28;45724;-76
2023/07/31 03:43:05;;;;;;;;;3.00;1.00;;;;;;;;5021605;28;45619;-75
2023/07/31 03:45:30;;;;;;;;;4.00;3.00;;;;;;;;5017745;28;45383;-75
2023/07/31 03:47:55;;;;;;;;;2.33;1.00;;;;;;;;5025208;28;45742;-76
2023/07/31 03:50:21;;;;;;;;;1.00;1.00;;;;;;;;5020855;28;46480;-76
2023/07/31 03:52:46;;;;;;;;;2.50;1.25;;;;;;;;5004262;28;45459;-75
2023/07/31 03:55:12;;;;;;;;;3.00;2.00;;;;;;;;5009563;28;45872;-76
2023/07/31 03:57:37;;;;;;;;;1.33;1.33;;;;;;;;5023012;28;46578;-75
2023/07/31 04:00:02;;;;;;;;;0.75;0.75;;;;;;;;5016571;28;48129;-75
2023/07/31 04:02:28;;;;;;;;;1.50;0.50;;;;;;;;5023883;28;45789;-76
2023/07/31 04:04:53;;;;;;;;;1.50;1.50;;;;;;;;5020114;28;45684;-75
2023/07/31 04:07:18;;;;;;;;;2.00;0.75;;;;;;;;5025244;28;45716;-77
2023/07/31 04:09:44;;;;;;;;;3.50;2.50;;;;;;;;5024932;28;45115;-75
2023/07/31 04:12:09;;;;;;;;;4.67;3.33;;;;;;;;5022309;28;45661;-75
2023/07/31 04:14:34;;;;;;;;;3.50;2.00;;;;;;;;5005045;28;45521;-77
2023/07/31 04:16:59;;;;;;;;;3.00;2.00;;;;;;;;5007392;28;45704;-78
2023/07/31 04:19:25;;;;;;;;;4.75;2.00;;;;;;;;5011891;28;47543;-75
2023/07/31 04:21:50;;;;;;;;;4.00;2.75;;;;;;;;5017750;28;45589;-75
2023/07/31 04:24:15;;;;;;;;;2.50;1.25;;;;;;;;5015773;28;45338;-74
2023/07/31 04:26:41;;;;;;;;;3.00;3.00;;;;;;;;5023116;28;45291;-76
2023/07/31 04:29:07;;;;;;;;;3.50;1.00;;;;;;;;5025826;28;45225;-76
2023/07/31 04:31:32;;;;;;;;;2.00;2.00;;;;;;;;5009494;28;45442;-76
2023/07/31 04:33:57;;;;;;;;;1.25;1.00;;;;;;;;5023130;28;45899;-78
2023/07/31 04:36:22;;;;;;;;;4.25;3.00;;;;;;;;5008827;28;47376;-76
2023/07/31 04:38:48;;;;;;;;;2.00;1.00;;;;;;;;5020638;28;46392;-76
2023/07/31 04:41:13;;;;;;;;;3.25;2.50;;;;;;;;5003366;28;45600;-76
2023/07/31 04:43:39;;;;;;;;;3.33;1.00;;;;;;;;5014061;28;46330;-75
2023/07/31 04:46:05;;;;;;;;;4.67;4.00;;;;;;;;5018630;28;45481;-78
2023/07/31 04:48:30;;;;;;;;;4.33;3.00;;;;;;;;5024618;28;46553;-76
2023/07/31 04:50:56;;;;;;;;;5.67;2.33;;;;;;;;5023890;28;45766;-77
2023/07/31 04:53:21;;;;;;;;;8.00;7.00;;;;;;;;5031792;28;45687;-76
2023/07/31 04:55:46;;;;;;;;;1.00;1.00;;;;;;;;5024510;28;45106;-77
2023/07/31 04:58:12;;;;;;;;;4.67;2.67;;;;;;;;5027013;28;45371;-76
2023/07/31 05:00:37;;;;;;;;;3.25;3.25;;;;;;;;5027689;28;45455;-77
2023/07/31 05:03:02;;;;;;;;;4.75;2.75;;;;;;;;5024802;28;45772;-75
2023/07/31 05:05:28;;;;;;;;;4.00;4.00;;;;;;;;5036121;28;45360;-78
2023/07/31 05:07:53;;;;;;;;;6.00;3.00;;;;;;;;4999738;28;46359;-76
2023/07/31 05:10:18;;;;;;;;;4.00;3.00;;;;;;;;5023945;28;45103;-76
2023/07/31 05:12:43;;;;;;;;;2.50;2.00;;;;;;;;5014008;28;45530;-75
2023/07/31 05:15:09;;;;;;;;;6.67;4.00;;;;;;;;5027342;28;45344;-76
2023/07/31 05:17:34;;;;;;;;;7.25;2.25;;;;;;;;5021115;28;46911;-75
2023/07/31 05:19:59;;;;;;;;;5.33;3.67;;;;;;;;5005146;28;45945;-76
2023/07/31 05:22:25;;;;;;;;;6.00;3.67;;;;;;;;5037794;28;45454;-75
2023/07/31 05:24:50;;;;;;;;;20.00;17.00;;;;;;;;5017550;28;45677;-75
2023/07/31 05:27:18;;;;;;;;;5.33;4.33;;;;;;;;5010935;28;45410;-76
2023/07/31 05:29:43;;;;;;;;;6.00;6.00;;;;;;;;5001672;28;45538;-77
2023/07/31 05:32:08;;;;;;;;;6.00;5.00;;;;;;;;5012988;28;45447;-77
2023/07/31 05:34:34;;;;;;;;;3.00;3.00;;;;;;;;5018803;28;45742;-74
2023/07/31 05:36:59;;;;;;;;;2.67;2.67;;;;;;;;4997955;28;46818;-75
2023/07/31 05:39:25;;;;;;;;;3.00;3.00;;;;;;;;4998273;28;45396;-76
2023/07/31 05:41:50;;;;;;;;;5.75;3.75;;;;;;;;5023026;28;45788;-78
2023/07/31 05:44:15;;;;;;;;;7.00;5.00;;;;;;;;4994593;28;45755;-74
2023/07/31 05:46:40;;;;;;;;;5.67;4.00;;;;;;;;5023223;28;46184;-75
2023/07/31 05:49:07;;;;;;;;;3.00;3.00;;;;;;;;5006205;28;45909;-76
2023/07/31 05:51:32;;;;;;;;;4.75;3.00;;;;;;;;5011411;28;45850;-75
2023/07/31 05:53:57;;;;;;;;;3.75;3.00;;;;;;;;5020323;28;45813;-75
2023/07/31 05:56:22;;;;;;;;;5.33;3.33;;;;;;;;5006943;28;45901;-76
2023/07/31 05:58:48;;;;;;;;;5.33;4.00;;;;;;;;4989524;28;45888;-76
2023/07/31 06:01:15;;;;;;;;;8.33;3.67;;;;;;;;5011850;28;45467;-74
2023/07/31 06:03:40;;;;;;;;;4.00;4.00;;;;;;;;4992539;28;45950;-76
2023/07/31 06:06:06;;;;;;;;;8.00;4.67;;;;;;;;5011168;28;46768;-76
2023/07/31 06:08:32;;;;;;;;;4.00;3.00;;;;;;;;4994896;28;45847;-73
2023/07/31 06:10:58;;;;;;;;;4.33;3.33;;;;;;;;4993705;28;45962;-74
2023/07/31 06:13:24;;;;;;;;;7.67;5.00;;;;;;;;5020872;28;46106;-76
2023/07/31 06:15:50;;;;;;;;;8.33;5.00;;;;;;;;5013726;28;46505;-75
2023/07/31 06:18:15;;;;;;;;;4.33;4.33;;;;;;;;4995191;28;45532;-76
2023/07/31 06:20:42;;;;;;;;;9.00;5.75;;;;;;;;4993873;28;45585;-82
2023/07/31 06:26:36;;;;;;;;;9.67;5.00;;;;;;;;5008756;28;45457;-86
2023/07/31 06:29:02;;;;;;;;;4.50;4.25;;;;;;;;4986851;28;45814;-77
2023/07/31 06:31:27;;;;;;;;;6.00;4.67;;;;;;;;5012337;28;45441;-77
2023/07/31 06:33:52;;;;;;;;;5.33;5.33;;;;;;;;5011174;28;45632;-78
2023/07/31 06:36:18;;;;;;;;;7.67;7.00;;;;;;;;5011588;28;45744;-75
2023/07/31 06:38:43;;;;;;;;;8.00;5.67;;;;;;;;4992338;28;45821;-76
2023/07/31 06:41:10;;;;;;;;;4.75;4.00;;;;;;;;5008517;28;46063;-75
2023/07/31 06:43:35;;;;;;;;;4.33;4.33;;;;;;;;4991310;28;46547;-76
2023/07/31 06:46:05;;;;;;;;;7.33;5.00;;;;;;;;4993187;28;46087;-75
2023/07/31 06:48:30;;;;;;;;;9.75;5.00;;;;;;;;5015547;28;45531;-75
2023/07/31 06:50:56;;;;;;;;;7.67;5.33;;;;;;;;5004232;28;45751;-75
2023/07/31 06:53:21;;;;;;;;;5.67;5.67;;;;;;;;5004588;28;45858;-75
2023/07/31 06:55:48;;;;;;;;;9.00;5.00;;;;;;;;5007304;28;46417;-77
2023/07/31 06:58:13;;;;;;;;;4.67;4.00;;;;;;;;5010049;28;45550;-76
2023/07/31 07:00:38;;;;;;;;;7.67;5.00;;;;;;;;5011925;28;45692;-76
2023/07/31 07:03:04;;;;;;;;;5.25;4.00;;;;;;;;5003132;28;45490;-76
2023/07/31 07:05:29;;;;;;;;;6.00;5.67;;;;;;;;5006879;28;45915;-75
2023/07/31 07:07:55;;;;;;;;;6.00;5.67;;;;;;;;5008381;28;46116;-75
2023/07/31 07:10:20;;;;;;;;;6.75;5.25;;;;;;;;4990202;28;45629;-76
2023/07/31 07:12:45;;;;;;;;;9.00;8.25;;;;;;;;5002956;28;45941;-74
2023/07/31 07:15:11;;;;;;;;;7.33;5.00;;;;;;;;4995359;28;47588;-74
2023/07/31 07:17:36;;;;;;;;;4.00;3.33;;;;;;;;4993117;28;46097;-75
2023/07/31 07:20:03;;;;;;;;;7.00;5.00;;;;;;;;5008706;28;45910;-74
2023/07/31 07:22:28;;;;;;;;;4.25;4.25;;;;;;;;4987762;28;46461;-75
2023/07/31 07:24:54;;;;;;;;;8.00;7.00;;;;;;;;5002053;28;47503;-74
2023/07/31 07:27:19;;;;;;;;;8.50;4.25;;;;;;;;5011788;28;45646;-76
2023/07/31 07:29:45;;;;;;;;;10.25;6.25;;;;;;;;5018623;28;45805;-80
2023/07/31 07:32:11;;;;;;;;;8.00;6.00;;;;;;;;5013319;28;45615;-76
2023/07/31 07:34:37;;;;;;;;;5.00;4.00;;;;;;;;5010882;28;45554;-76
2023/07/31 07:37:05;;;;;;;;;7.00;6.00;;;;;;;;5012308;28;45785;-76
2023/07/31 07:39:31;;;;;;;;;9.00;3.00;;;;;;;;5012954;28;45510;-75
2023/07/31 07:41:56;;;;;;;;;8.50;4.00;;;;;;;;5013167;28;45471;-74
2023/07/31 07:44:21;;;;;;;;;6.25;4.00;;;;;;;;5027554;28;45650;-75
2023/07/31 07:46:46;;;;;;;;;6.00;5.00;;;;;;;;4998133;28;45021;-75
2023/07/31 07:49:12;;;;;;;;;6.75;6.00;;;;;;;;5023462;28;45988;-76
2023/07/31 07:51:37;;;;;;;;;5.50;5.50;;;;;;;;5003975;28;45775;-76
2023/07/31 07:54:02;;;;;;;;;9.00;5.25;;;;;;;;5015531;28;45867;-76
2023/07/31 07:56:28;;;;;;;;;12.00;6.00;;;;;;;;5021557;28;45756;-74
2023/07/31 07:58:53;;;;;;;;;9.00;7.75;;;;;;;;5005248;28;45842;-75
2023/07/31 08:01:19;;;;;;;;;11.50;8.75;;;;;;;;4997024;28;45792;-76
2023/07/31 08:03:44;;;;;;;;;4.75;4.75;;;;;;;;5007648;28;46685;-75
2023/07/31 08:06:10;;;;;;;;;5.00;5.00;;;;;;;;5013494;28;45354;-76
2023/07/31 08:08:35;;;;;;;;;5.50;3.00;;;;;;;;5018480;28;45329;-76
2023/07/31 08:11:01;;;;;;;;;3.75;3.75;;;;;;;;4995048;28;45797;-77
2023/07/31 08:13:26;;;;;;;;;3.00;2.25;;;;;;;;5013708;28;45583;-76
2023/07/31 08:15:51;;;;;;;;;7.25;6.00;;;;;;;;5014739;28;45357;-78
2023/07/31 08:18:17;;;;;;;;;6.25;4.75;;;;;;;;4995165;28;45704;-76
2023/07/31 08:20:42;;;;;;;;;5.50;5.00;;;;;;;;4994626;28;47160;-76
2023/07/31 08:23:08;;;;;;;;;7.25;4.25;;;;;;;;5012641;28;45663;-75
2023/07/31 08:25:35;;;;;;;;;5.75;4.25;;;;;;;;5012391;28;46032;-76
2023/07/31 08:28:00;;;;;;;;;4.00;2.00;;;;;;;;5013522;28;46004;-76
2023/07/31 08:30:25;;;;;;;;;6.25;5.00;;;;;;;;5015038;28;45794;-75
2023/07/31 08:32:51;;;;;;;;;5.75;5.00;;;;;;;;5013595;28;45776;-75
2023/07/31 08:35:16;;;;;;;;;4.50;4.50;;;;;;;;4996719;28;45712;-75
2023/07/31 08:37:41;;;;;;;;;5.50;4.00;;;;;;;;4994108;28;45518;-76
2023/07/31 08:40:07;;;;;;;;;5.50;3.75;;;;;;;;5013576;28;45852;-77
2023/07/31 08:42:32;;;;;;;;;3.00;3.00;;;;;;;;5014404;28;45444;-78
2023/07/31 08:44:59;;;;;;;;;7.00;5.00;;;;;;;;5014147;28;45439;-76
2023/07/31 08:47:25;;;;;;;;;11.00;4.75;;;;;;;;5001285;28;45483;-75
2023/07/31 08:49:52;;;;;;;;;7.25;5.00;;;;;;;;5010248;28;45717;-76
2023/07/31 08:52:17;;;;;;;;;6.50;3.50;;;;;;;;5002329;28;47276;-77
2023/07/31 08:54:43;;;;;;;;;5.75;5.75;;;;;;;;5008016;28;45374;-76
2023/07/31 08:57:10;;;;;;;;;6.25;4.25;;;;;;;;4996391;28;46331;-78
2023/07/31 08:59:36;;;;;;;;;5.25;5.00;;;;;;;;4992826;28;46241;-77
2023/07/31 09:02:04;;;;;;;;;4.00;4.00;;;;;;;;4998310;28;45827;-77
2023/07/31 09:04:30;;;;;;;;;4.00;4.00;;;;;;;;5021594;28;45981;-76
2023/07/31 09:06:59;;;;;;;;;4.25;4.00;;;;;;;;5011271;28;45403;-75
2023/07/31 09:09:25;;;;;;;;;7.50;4.00;;;;;;;;5000858;28;46545;-76
2023/07/31 09:11:52;;;;;;;;;3.75;2.75;;;;;;;;4996183;28;45802;-76
2023/07/31 09:14:17;;;;;;;;;3.75;3.00;;;;;;;;5003750;28;45592;-76
2023/07/31 09:16:53;;;;;;;;;5.00;3.75;;;;;;;;5013935;28;45844;-76
2023/07/31 09:19:24;;;;;;;;;3.00;3.00;;;;;;;;5012213;28;45680;-77
2023/07/31 09:21:53;;;;;;;;;4.00;4.00;;;;;;;;4995272;28;46920;-75
2023/07/31 09:24:29;;;;;;;;;3.75;3.75;;;;;;;;4994908;28;45744;-77
2023/07/31 09:26:56;;;;;;;;;0.50;0.00;;;;;;;;4986728;28;45962;-76
2023/07/31 09:29:21;;;;;;;;;6.75;2.50;;;;;;;;5013444;28;45629;-77
2023/07/31 09:31:47;;;;;;;;;44.00;34.67;;;;;;;;5013822;28;45709;-75
2023/07/31 09:34:15;;;;;;;;;15.00;13.00;;;;;;;;5003014;28;45357;-75
2023/07/31 09:36:42;;;;;;;;;7.67;5.33;;;;;;;;5005755;28;45591;-76
2023/07/31 09:39:09;;;;;;;;;8.50;6.75;;;;;;;;5010762;28;45809;-78
2023/07/31 09:41:39;;;;;;;;;6.50;6.50;;;;;;;;4981124;28;48208;-76
2023/07/31 09:44:04;;;;;;;;;9.67;8.33;;;;;;;;5005701;28;45921;-76
2023/07/31 09:46:30;;;;;;;;;6.00;4.75;;;;;;;;5011872;28;45308;-75
2023/07/31 09:49:11;;;;;;;;;6.00;4.00;;;;;;;;5016086;28;45514;-75
2023/07/31 09:51:40;;;;;;;;;9.00;4.00;;;;;;;;5002986;28;47845;-77
2023/07/31 09:54:11;;;;;;;;;6.00;4.75;;;;;;;;5007826;28;45899;-75
2023/07/31 09:56:47;;;;;;;;;5.00;3.75;;;;;;;;4991884;28;45804;-75
2023/07/31 09:59:13;;;;;;;;;4.25;3.00;;;;;;;;4973523;28;45440;-75
2023/07/31 10:01:40;;;;;;;;;6.00;6.00;;;;;;;;4987201;28;45673;-76
2023/07/31 10:04:07;;;;;;;;;5.75;5.00;;;;;;;;4982847;28;45468;-77
2023/07/31 10:06:34;;;;;;;;;5.00;5.00;;;;;;;;4991405;28;45881;-76
2023/07/31 10:09:00;;;;;;;;;6.25;4.50;;;;;;;;4991121;28;46458;-77
2023/07/31 10:11:27;;;;;;;;;2.00;2.00;;;;;;;;4974219;28;47337;-77
2023/07/31 10:13:55;;;;;;;;;4.00;3.00;;;;;;;;4975732;28;45425;-77
2023/07/31 10:16:23;;;;;;;;;6.00;4.00;;;;;;;;4978175;28;45484;-76
2023/07/31 10:18:59;;;;;;;;;6.50;3.50;;;;;;;;4984161;28;45384;-82
2023/07/31 10:21:24;;;;;;;;;7.67;6.67;;;;;;;;4967252;28;47691;-76
2023/07/31 10:23:50;;;;;;;;;5.25;4.00;;;;;;;;4993053;28;45474;-75
2023/07/31 10:26:17;;;;;;;;;7.67;5.33;;;;;;;;4980641;28;45754;-78
2023/07/31 10:28:43;;;;;;;;;4.33;3.33;;;;;;;;4991574;28;45797;-79
2023/07/31 10:31:25;;;;;;;;;6.00;4.00;;;;;;;;4992466;28;45866;-78
2023/07/31 10:33:59;;;;;;;;;4.25;3.25;;;;;;;;4969947;28;45755;-75
2023/07/31 10:36:25;;;;;;;;;4.75;4.00;;;;;;;;4993749;28;45451;-74
2023/07/31 10:38:51;;;;;;;;;4.25;4.25;;;;;;;;4997456;28;45450;-78
2023/07/31 10:41:17;;;;;;;;;8.75;5.50;;;;;;;;4980915;28;47818;-77
2023/07/31 10:43:42;;;;;;;;;3.75;3.25;;;;;;;;4999675;28;45431;-78
2023/07/31 10:46:13;;;;;;;;;6.00;5.50;;;;;;;;4996436;28;46078;-78
2023/07/31 10:48:43;;;;;;;;;4.50;4.50;;;;;;;;4963488;28;47164;-80
2023/07/31 10:51:10;;;;;;;;;5.75;4.00;;;;;;;;4978981;28;46334;-80
2023/07/31 10:53:36;;;;;;;;;7.00;5.00;;;;;;;;4978527;28;45582;-78
2023/07/31 10:56:04;;;;;;;;;5.50;4.00;;;;;;;;5005790;28;45822;-79
2023/07/31 10:58:31;;;;;;;;;5.25;4.50;;;;;;;;4992816;28;45749;-75
2023/07/31 11:00:58;;;;;;;;;3.25;2.75;;;;;;;;4979921;28;47294;-75
2023/07/31 11:03:27;;;;;;;;;4.75;4.75;;;;;;;;4985002;28;45364;-76
2023/07/31 11:05:58;;;;;;;;;6.50;2.75;;;;;;;;4995469;28;45499;-78
2023/07/31 11:08:28;;;;;;;;;3.00;2.75;;;;;;;;4996788;28;45845;-79
2023/07/31 11:11:02;;;;;;;;;5.00;5.00;;;;;;;;4997635;28;45680;-79
2023/07/31 11:13:30;;;;;;;;;5.75;2.50;;;;;;;;4992883;28;45483;-80
2023/07/31 11:15:56;;;;;;;;;3.75;3.50;;;;;;;;4994818;28;45488;-81
2023/07/31 11:25:35;;;;;;;;;;;;;;;;;;;;;
2023/07/31 11:31:53;;;;;;;;;5.50;5.00;;;;;;;;4797644;29;45493;-84
2023/07/31 11:34:50;;;;;;;;;5.50;4.75;;;;;;;;4786541;29;47793;-84
2023/07/31 11:40:32;;;;;;;;;;;;;;;;;;;;;
2023/07/31 11:43:36;;;;;;;;;5.25;4.75;;;;;;;;4818960;29;73323;-82
2023/07/31 11:55:28;;;;;;;;;15.33;10.33;;;;;;;;4872584;29;45876;-80
2023/07/31 11:57:58;;;;;;;;;8.00;5.75;;;;;;;;4862611;29;46337;-80
2023/07/31 12:00:29;;;;;;;;;10.75;5.00;;;;;;;;4866904;29;45587;-82
2023/07/31 12:06:03;;;;;;;;;5.75;5.00;;;;;;;;4984014;28;45535;-80
2023/07/31 12:08:32;;;;;;;;;7.00;6.00;;;;;;;;4982806;28;48005;-80
2023/07/31 12:14:13;;;;;;;;;7.75;5.25;;;;;;;;4992216;28;45531;-77
2023/07/31 12:16:52;;;;;;;;;9.00;6.50;;;;;;;;4971961;28;45808;-77
2023/07/31 12:19:33;;;;;;;;;;;;;;;;;;;;;
2023/07/31 12:22:16;;;;;;;;;6.75;4.25;;;;;;;;4981395;28;72562;-77
2023/07/31 12:24:56;;;;;;;;;4.50;4.50;;;;;;;;4998918;28;45310;-78
2023/07/31 12:27:32;;;;;;;;;6.50;5.50;;;;;;;;4981758;28;45765;-79
2023/07/31 12:29:58;;;;;;;;;8.50;6.00;;;;;;;;4992581;28;46421;-79
2023/07/31 12:32:25;;;;;;;;;7.25;6.00;;;;;;;;4976055;28;45464;-78
2023/07/31 12:34:50;;;;;;;;;5.50;5.50;;;;;;;;4992720;28;45569;-79
2023/07/31 12:37:15;;;;;;;;;5.00;5.00;;;;;;;;4974353;28;46450;-78
2023/07/31 12:39:41;;;;;;;;;6.00;5.25;;;;;;;;4991554;28;46138;-77
2023/07/31 12:42:06;;;;;;;;;6.25;4.50;;;;;;;;4975303;28;45420;-79
2023/07/31 12:44:31;;;;;;;;;5.00;4.25;;;;;;;;4993424;28;45984;-78
2023/07/31 12:46:57;;;;;;;;;4.50;4.50;;;;;;;;4994497;28;45874;-78
2023/07/31 12:49:22;;;;;;;;;10.25;6.75;;;;;;;;5006150;28;46199;-76
2023/07/31 12:51:47;;;;;;;;;7.50;6.00;;;;;;;;4986688;28;45680;-77
2023/07/31 12:54:15;;;;;;;;;6.25;5.00;;;;;;;;4980387;28;45554;-77
2023/07/31 12:56:41;;;;;;;;;5.75;4.00;;;;;;;;5004521;28;46348;-77
2023/07/31 12:59:06;;;;;;;;;6.00;4.00;;;;;;;;4993021;28;46858;-77
2023/07/31 13:01:35;;;;;;;;;5.50;5.50;;;;;;;;5012658;28;45767;-87
2023/07/31 13:04:01;;;;;;;;;3.75;3.75;;;;;;;;4996305;28;45434;-79
2023/07/31 13:06:26;;;;;;;;;5.75;4.25;;;;;;;;5012332;28;45775;-78
2023/07/31 13:08:51;;;;;;;;;4.00;4.00;;;;;;;;5001566;28;47028;-76
2023/07/31 13:11:16;;;;;;;;;5.50;5.00;;;;;;;;4992890;28;45740;-78
2023/07/31 13:13:42;;;;;;;;;4.25;4.25;;;;;;;;5009867;28;46013;-77
2023/07/31 13:16:07;;;;;;;;;8.25;4.00;;;;;;;;4992615;28;46856;-75
2023/07/31 13:18:32;;;;;;;;;8.50;5.00;;;;;;;;4994571;28;48190;-74
2023/07/31 13:20:57;;;;;;;;;7.00;2.25;;;;;;;;5012496;28;45465;-76
2023/07/31 13:23:23;;;;;;;;;6.50;5.00;;;;;;;;5020735;28;45422;-76
2023/07/31 13:25:49;;;;;;;;;5.75;5.25;;;;;;;;4997398;28;47153;-75
2023/07/31 13:28:17;;;;;;;;;4.00;3.25;;;;;;;;5012306;28;45969;-75
2023/07/31 13:30:43;;;;;;;;;7.00;3.00;;;;;;;;4994931;28;45588;-74
2023/07/31 13:33:09;;;;;;;;;5.25;4.75;;;;;;;;5013835;28;45903;-76
2023/07/31 13:35:37;;;;;;;;;7.00;5.00;;;;;;;;5019912;28;45833;-78
2023/07/31 13:38:09;;;;;;;;;4.50;4.25;;;;;;;;5005991;28;46057;-79
2023/07/31 13:40:38;;;;;;;;;6.25;4.00;;;;;;;;4998657;28;45500;-79
2023/07/31 13:43:15;;;;;;;;;5.50;4.25;;;;;;;;5019734;28;45490;-78
2023/07/31 13:45:41;;;;;;;;;4.75;3.00;;;;;;;;5022757;28;45522;-78
2023/07/31 13:48:06;;;;;;;;;4.00;4.00;;;;;;;;5007366;28;46479;-78
2023/07/31 13:50:40;;;;;;;;;5.25;3.50;;;;;;;;5012681;28;45815;-79
2023/07/31 13:53:05;;;;;;;;;6.00;3.25;;;;;;;;5003220;28;44831;-78
2023/07/31 13:55:31;;;;;;;;;4.25;4.25;;;;;;;;4998933;28;45543;-77
2023/07/31 13:58:00;;;;;;;;;5.50;3.00;;;;;;;;5004896;28;45331;-79
2023/07/31 14:00:35;;;;;;;;;2.75;2.75;;;;;;;;4999189;28;45617;-77
2023/07/31 14:03:00;;;;;;;;;5.25;2.75;;;;;;;;5005742;28;45496;-79
2023/07/31 14:05:25;;;;;;;;;4.00;3.25;;;;;;;;5000510;28;45879;-78
2023/07/31 14:07:51;;;;;;;;;4.25;3.00;;;;;;;;5000739;28;45656;-79
2023/07/31 14:10:19;;;;;;;;;5.25;4.75;;;;;;;;5003868;28;45469;-79
2023/07/31 14:12:47;;;;;;;;;4.00;4.00;;;;;;;;5002177;28;45447;-78
2023/07/31 14:15:13;;;;;;;;;4.00;4.00;;;;;;;;4998802;28;45188;-78
2023/07/31 14:17:41;;;;;;;;;3.75;3.75;;;;;;;;5000847;28;47090;-78
2023/07/31 14:20:07;;;;;;;;;4.00;3.75;;;;;;;;5010466;28;45419;-79
2023/07/31 14:22:38;;;;;;;;;5.25;5.25;;;;;;;;5005771;28;44800;-78
2023/07/31 14:25:10;;;;;;;;;4.00;4.00;;;;;;;;5000859;28;46127;-77
2023/07/31 14:27:36;;;;;;;;;4.50;4.50;;;;;;;;5003269;28;45603;-78
2023/07/31 14:30:07;;;;;;;;;6.00;4.00;;;;;;;;5001936;28;45827;-79
2023/07/31 14:32:33;;;;;;;;;6.50;4.25;;;;;;;;5005387;28;45754;-79
2023/07/31 14:34:58;;;;;;;;;5.75;4.25;;;;;;;;5004217;28;45391;-79
2023/07/31 14:37:44;;;;;;;;;2.25;2.25;;;;;;;;5003321;28;47416;-79
2023/07/31 14:40:38;;;;;;;;;;;;;;;;;;;;;
2023/07/31 14:43:33;;;;;;;;;6.00;4.75;;;;;;;;4988953;28;68640;-82
2023/07/31 14:46:15;;;;;;;;;5.25;3.50;;;;;;;;4965843;28;45520;-82
2023/07/31 14:48:59;;;;;;;;;;;;;;;;;;;;;
2023/07/31 14:57:36;;;;;;;;;6.75;6.75;;;;;;;;5015189;28;44751;-86
2023/07/31 15:00:26;;;;;;;;;27.67;26.67;;;;;;;;4999538;28;47266;-86
2023/07/31 15:02:54;;;;;;;;;8.50;8.50;;;;;;;;4999368;28;45331;-85
2023/07/31 15:05:23;;;;;;;;;17.00;8.67;;;;;;;;4996794;28;44854;-83
2023/07/31 15:11:26;;;;;;;;;;;;;;;;;;;;;
2023/07/31 15:13:58;;;;;;;;;13.50;10.25;;;;;;;;5011496;28;72016;-82
2023/07/31 15:16:53;;;;;;;;;10.25;8.75;;;;;;;;4993338;28;45506;-84
2023/07/31 15:19:58;;;;;;;;;6.00;5.00;;;;;;;;4989184;28;46004;-84
2023/07/31 15:25:55;;;;;;;;;7.50;3.50;;;;;;;;4993130;28;45861;-81
2023/07/31 15:29:11;;;;;;;;;7.50;5.75;;;;;;;;4993265;28;44841;-79
2023/07/31 15:31:53;;;;;;;;;4.75;4.75;;;;;;;;4961047;28;45375;-80
2023/07/31 15:34:20;;;;;;;;;4.25;3.00;;;;;;;;4949329;28;45747;-80
2023/07/31 15:37:34;;;;;;;;;;;;;;;;;;;;;
2023/07/31 15:43:26;;;;;;;;;;;;;;;;;;;;;